createdAt,value
2019-04-06T00:00:50.556Z,84.82
2019-04-06T00:03:22.365Z,83.80
2019-04-06T00:05:54.397Z,82.06
2019-04-06T00:08:26.497Z,82.30
2019-04-06T00:10:58.308Z,82.39
2019-04-06T00:13:30.327Z,82.35
2019-04-06T00:16:02.208Z,82.96
2019-04-06T00:18:34.190Z,83.11
2019-04-06T00:21:06.061Z,82.94
2019-04-06T00:23:37.797Z,83.71
2019-04-06T00:26:09.669Z,84.38
2019-04-06T00:28:42.479Z,85.06
2019-04-06T00:31:45.500Z,86.33
2019-04-06T00:34:17.217Z,86.23
2019-04-06T00:36:49.273Z,86.49
2019-04-06T00:39:21.092Z,86.86
2019-04-06T00:41:52.819Z,86.75
2019-04-06T00:44:24.637Z,87.52
2019-04-06T00:46:56.506Z,87.24
2019-04-06T00:49:28.315Z,87.00
2019-04-06T00:52:00.105Z,86.69
2019-04-06T00:54:31.989Z,86.60
2019-04-06T00:57:03.738Z,86.80
2019-04-06T00:59:36.860Z,86.95
2019-04-06T01:02:08.881Z,87.00
2019-04-06T01:04:40.674Z,86.43
2019-04-06T01:07:12.763Z,86.93
2019-04-06T01:09:44.582Z,87.03
2019-04-06T01:12:16.660Z,85.96
2019-04-06T01:14:48.414Z,85.92
2019-04-06T01:17:20.565Z,85.81
2019-04-06T01:19:52.486Z,85.59
2019-04-06T01:22:24.250Z,85.65
2019-04-06T01:24:56.282Z,85.79
2019-04-06T01:27:28.024Z,84.58
2019-04-06T01:29:59.841Z,83.72
2019-04-06T01:32:31.645Z,83.56
2019-04-06T01:35:03.387Z,83.78
2019-04-06T01:37:35.256Z,83.01
2019-04-06T01:40:07.587Z,82.77
2019-04-06T01:42:39.382Z,82.77
2019-04-06T01:45:12.283Z,82.93
2019-04-06T01:47:44.022Z,84.05
2019-04-06T01:50:16.192Z,85.01
2019-04-06T01:52:47.898Z,84.99
2019-04-06T01:55:19.988Z,84.32
2019-04-06T01:57:51.768Z,84.84
2019-04-06T02:00:23.571Z,85.87
2019-04-06T02:02:55.423Z,85.28
2019-04-06T02:05:27.316Z,85.85
2019-04-06T02:07:59.114Z,84.75
2019-04-06T02:10:30.830Z,84.07
2019-04-06T02:13:02.847Z,83.53
2019-04-06T02:15:34.607Z,83.96
2019-04-06T02:18:06.393Z,84.77
2019-04-06T02:20:38.457Z,84.61
2019-04-06T02:23:10.593Z,84.28
2019-04-06T02:25:42.336Z,83.99
2019-04-06T02:28:14.081Z,83.95
2019-04-06T02:31:03.781Z,84.26
2019-04-06T02:33:46.424Z,84.73
2019-04-06T02:36:35.778Z,85.30
2019-04-06T02:42:08.093Z,84.35
2019-04-06T02:44:39.855Z,84.14
2019-04-06T02:47:11.905Z,84.47
2019-04-06T02:49:43.714Z,83.98
2019-04-06T02:52:15.507Z,84.39
2019-04-06T02:54:47.267Z,84.73
2019-04-06T02:57:19.025Z,85.44
2019-04-06T02:59:50.793Z,85.45
2019-04-06T03:02:22.670Z,85.23
2019-04-06T03:04:54.480Z,85.44
2019-04-06T03:07:26.353Z,85.54
2019-04-06T03:09:58.848Z,85.04
2019-04-06T03:12:30.943Z,86.66
2019-04-06T03:15:02.959Z,86.17
2019-04-06T03:17:34.762Z,86.59
2019-04-06T03:20:07.525Z,87.21
2019-04-06T03:22:39.329Z,87.20
2019-04-06T03:25:11.912Z,87.96
2019-04-06T03:27:43.944Z,87.92
2019-04-06T03:30:16.052Z,87.70
2019-04-06T03:32:47.778Z,87.56
2019-04-06T03:35:19.514Z,86.91
2019-04-06T03:37:51.916Z,85.96
2019-04-06T03:40:23.644Z,85.91
2019-04-06T03:42:55.755Z,88.15
2019-04-06T03:45:27.501Z,85.61
2019-04-06T03:48:00.242Z,87.99
2019-04-06T03:50:32.025Z,86.76
2019-04-06T03:53:03.899Z,88.38
2019-04-06T03:55:36.076Z,89.08
2019-04-06T03:58:07.813Z,89.27
2019-04-06T04:00:39.624Z,89.58
2019-04-06T04:03:11.950Z,89.53
2019-04-06T04:05:44.039Z,88.96
2019-04-06T04:08:15.770Z,88.62
2019-04-06T04:10:48.055Z,89.10
2019-04-06T04:13:20.219Z,89.15
2019-04-06T04:15:52.230Z,89.27
2019-04-06T04:18:24.055Z,89.14
2019-04-06T04:20:56.426Z,89.10
2019-04-06T04:23:28.146Z,89.24
2019-04-06T04:26:00.052Z,88.21
2019-04-06T04:28:31.787Z,88.21
2019-04-06T04:31:03.605Z,89.04
2019-04-06T04:33:35.393Z,88.80
2019-04-06T04:36:07.235Z,89.47
2019-04-06T04:38:39.161Z,89.53
2019-04-06T04:41:11.410Z,89.87
2019-04-06T04:43:43.362Z,90.19
2019-04-06T04:46:15.141Z,90.43
2019-04-06T04:48:47.168Z,90.41
2019-04-06T04:51:18.974Z,90.55
2019-04-06T04:53:50.855Z,89.47
2019-04-06T04:56:22.594Z,90.64
2019-04-06T04:58:54.671Z,90.50
2019-04-06T05:01:26.798Z,90.95
2019-04-06T05:03:58.856Z,90.77
2019-04-06T05:06:30.917Z,91.14
2019-04-06T05:09:02.676Z,91.28
2019-04-06T05:11:34.853Z,91.15
2019-04-06T05:15:00.257Z,91.11
2019-04-06T05:17:32.147Z,90.49
2019-04-06T05:20:04.125Z,88.45
2019-04-06T05:22:35.943Z,90.06
2019-04-06T05:25:08.933Z,90.80
2019-04-06T05:27:51.257Z,89.44
2019-04-06T05:30:14.802Z,88.58
2019-04-06T05:32:46.541Z,88.88
2019-04-06T05:35:18.594Z,90.49
2019-04-06T05:37:50.338Z,91.19
2019-04-06T05:40:22.058Z,91.57
2019-04-06T05:42:53.793Z,91.46
2019-04-06T05:45:26.500Z,91.81
2019-04-06T05:47:58.561Z,91.40
2019-04-06T05:50:30.665Z,90.61
2019-04-06T05:53:02.519Z,90.62
2019-04-06T05:55:34.291Z,89.27
2019-04-06T05:58:09.805Z,89.35
2019-04-06T06:00:40.532Z,89.42
2019-04-06T06:03:15.349Z,88.73
2019-04-06T06:05:46.429Z,89.27
2019-04-06T06:08:19.648Z,89.33
2019-04-06T06:10:51.822Z,89.54
2019-04-06T06:13:23.953Z,90.99
2019-04-06T06:15:55.636Z,90.82
2019-04-06T06:18:27.739Z,90.86
2019-04-06T06:20:59.565Z,89.05
2019-04-06T06:23:31.608Z,90.62
2019-04-06T06:26:03.566Z,90.33
2019-04-06T06:28:35.366Z,90.97
2019-04-06T06:31:07.308Z,90.75
2019-04-06T06:33:39.380Z,90.98
2019-04-06T06:36:11.915Z,90.86
2019-04-06T06:38:43.794Z,91.05
2019-04-06T06:41:15.632Z,90.92
2019-04-06T06:43:47.456Z,90.84
2019-04-06T06:46:19.298Z,90.76
2019-04-06T06:48:51.041Z,89.22
2019-04-06T06:51:22.785Z,88.50
2019-04-06T06:53:54.772Z,88.58
2019-04-06T06:56:26.658Z,87.93
2019-04-06T06:58:59.803Z,88.05
2019-04-06T07:01:31.621Z,88.27
2019-04-06T07:04:03.543Z,88.44
2019-04-06T07:06:35.363Z,88.74
2019-04-06T07:09:08.652Z,88.98
2019-04-06T07:11:40.435Z,90.14
2019-04-06T07:14:12.772Z,89.04
2019-04-06T07:16:44.501Z,90.12
2019-04-06T07:19:16.233Z,90.10
2019-04-06T07:21:48.311Z,89.62
2019-04-06T07:24:20.375Z,90.15
2019-04-06T07:26:52.182Z,89.75
2019-04-06T07:29:24.022Z,89.40
2019-04-06T07:31:55.785Z,89.46
2019-04-06T07:34:27.580Z,89.82
2019-04-06T07:36:59.374Z,89.73
2019-04-06T07:39:31.727Z,88.52
2019-04-06T07:42:03.862Z,89.27
2019-04-06T07:44:35.643Z,88.54
2019-04-06T07:47:07.388Z,87.89
2019-04-06T07:49:39.124Z,88.55
2019-04-06T07:52:12.198Z,88.35
2019-04-06T07:54:43.942Z,88.69
2019-04-06T07:57:15.999Z,89.69
2019-04-06T07:59:47.913Z,89.39
2019-04-06T08:02:19.596Z,88.11
2019-04-06T08:04:51.844Z,88.89
2019-04-06T08:07:23.659Z,88.68
2019-04-06T08:09:55.409Z,88.12
2019-04-06T08:12:27.286Z,87.71
2019-04-06T08:14:59.047Z,87.90
2019-04-06T08:17:31.932Z,87.76
2019-04-06T08:20:03.772Z,87.78
2019-04-06T08:22:35.519Z,88.26
2019-04-06T08:25:08.306Z,88.22
2019-04-06T08:27:40.060Z,87.60
2019-04-06T08:30:12.279Z,87.45
2019-04-06T08:32:44.294Z,87.14
2019-04-06T08:35:25.237Z,86.90
2019-04-06T08:37:50.282Z,86.88
2019-04-06T08:40:22.393Z,86.98
2019-04-06T08:42:54.904Z,86.70
2019-04-06T08:45:27.033Z,86.58
2019-04-06T08:47:58.832Z,87.00
2019-04-06T08:50:31.259Z,86.31
2019-04-06T08:53:03.116Z,86.55
2019-04-06T08:55:34.854Z,87.01
2019-04-06T08:58:06.855Z,86.76
2019-04-06T09:00:38.928Z,87.49
2019-04-06T09:03:11.516Z,86.40
2019-04-06T09:05:43.403Z,86.35
2019-04-06T09:08:15.186Z,85.64
2019-04-06T09:10:46.976Z,85.66
2019-04-06T09:13:19.060Z,85.19
2019-04-06T09:15:50.790Z,86.17
2019-04-06T09:18:22.917Z,86.05
2019-04-06T09:20:55.053Z,85.79
2019-04-06T09:23:26.843Z,85.21
2019-04-06T09:25:58.581Z,85.43
2019-04-06T09:28:30.799Z,84.96
2019-04-06T09:31:02.887Z,84.45
2019-04-06T09:33:34.636Z,83.72
2019-04-06T09:36:07.272Z,83.73
2019-04-06T09:38:39.503Z,83.82
2019-04-06T09:41:11.691Z,83.95
2019-04-06T09:43:43.538Z,82.45
2019-04-06T09:46:49.340Z,82.58
2019-04-06T09:49:39.135Z,82.46
2019-04-06T09:52:21.615Z,82.01
2019-04-06T09:55:07.266Z,81.06
2019-04-06T09:58:17.777Z,81.18
2019-04-06T10:00:58.905Z,80.30
2019-04-06T10:03:51.235Z,80.86
2019-04-06T10:06:45.232Z,81.26
2019-04-06T10:09:31.120Z,78.71
2019-04-06T10:12:18.867Z,79.31
2019-04-06T10:15:15.889Z,77.26
2019-04-06T10:18:03.999Z,78.13
2019-04-06T10:20:54.660Z,79.81
2019-04-06T10:23:54.951Z,77.63
2019-04-06T10:26:40.187Z,77.75
2019-04-06T10:29:47.398Z,78.47
2019-04-06T10:32:26.661Z,76.89
2019-04-06T10:35:10.421Z,75.24
2019-04-06T10:38:03.860Z,75.34
2019-04-06T10:40:56.571Z,75.85
2019-04-06T10:43:56.639Z,75.49
2019-04-06T10:46:47.673Z,75.69
2019-04-06T10:49:50.311Z,75.18
2019-04-06T10:52:42.035Z,74.80
2019-04-06T10:55:31.815Z,75.20
2019-04-06T10:58:15.459Z,75.16
2019-04-06T11:01:04.997Z,75.78
2019-04-06T11:03:43.154Z,74.82
2019-04-06T11:06:27.505Z,74.57
2019-04-06T11:09:18.096Z,74.17
2019-04-06T11:12:00.001Z,73.41
2019-04-06T11:14:50.841Z,73.97
2019-04-06T11:17:47.494Z,73.67
2019-04-06T11:20:41.263Z,74.29
2019-04-06T11:23:30.915Z,72.39
2019-04-06T11:26:20.852Z,73.02
2019-04-06T11:29:09.533Z,72.29
2019-04-06T11:32:06.707Z,72.69
2019-04-06T11:34:52.167Z,72.46
2019-04-06T11:37:35.379Z,69.99
2019-04-06T11:40:16.053Z,70.86
2019-04-06T11:43:05.612Z,70.58
2019-04-06T11:45:46.514Z,70.71
2019-04-06T11:48:52.559Z,70.40
2019-04-06T11:51:42.301Z,70.60
2019-04-06T11:54:36.272Z,70.46
2019-04-06T11:57:26.589Z,70.72
2019-04-06T12:00:25.979Z,69.42
2019-04-06T12:03:08.304Z,67.74
2019-04-06T12:05:46.126Z,69.64
2019-04-06T12:08:34.157Z,68.24
2019-04-06T12:11:27.910Z,67.21
2019-04-06T12:14:26.418Z,65.55
2019-04-06T12:17:20.036Z,66.60
2019-04-06T12:20:26.208Z,65.84
2019-04-06T12:23:11.331Z,66.69
2019-04-06T12:26:00.969Z,65.88
2019-04-06T12:29:00.519Z,62.76
2019-04-06T12:31:45.071Z,61.47
2019-04-06T12:34:27.131Z,61.17
2019-04-06T12:37:18.017Z,62.10
2019-04-06T12:40:03.526Z,59.81
2019-04-06T12:42:41.980Z,61.92
2019-04-06T12:45:31.537Z,62.13
2019-04-06T12:48:13.674Z,62.28
2019-04-06T12:51:07.449Z,58.98
2019-04-06T12:53:45.333Z,59.20
2019-04-06T12:56:41.958Z,59.29
2019-04-06T12:59:47.678Z,57.35
2019-04-06T13:02:31.355Z,58.47
2019-04-06T13:05:23.477Z,59.45
2019-04-06T13:08:07.480Z,57.48
2019-04-06T13:10:48.657Z,57.18
2019-04-06T13:13:30.188Z,58.69
2019-04-06T13:16:11.356Z,57.35
2019-04-06T13:19:08.312Z,58.37
2019-04-06T13:21:57.719Z,57.10
2019-04-06T13:24:39.887Z,57.71
2019-04-06T13:27:24.854Z,57.06
2019-04-06T13:30:27.842Z,56.40
2019-04-06T13:33:17.514Z,55.28
2019-04-06T13:35:58.797Z,56.75
2019-04-06T13:39:01.343Z,55.89
2019-04-06T13:42:03.442Z,56.41
2019-04-06T13:44:52.854Z,56.75
2019-04-06T13:48:01.849Z,55.84
2019-04-06T13:50:38.302Z,55.08
2019-04-06T13:53:21.360Z,55.83
2019-04-06T13:56:13.473Z,55.14
2019-04-06T13:59:07.911Z,55.01
2019-04-06T14:01:58.640Z,55.21
2019-04-06T14:04:45.740Z,55.36
2019-04-06T14:07:36.435Z,55.82
2019-04-06T14:10:23.935Z,54.95
2019-04-06T14:16:47.668Z,54.93
2019-04-06T14:19:49.554Z,54.62
2019-04-06T14:22:40.913Z,53.24
2019-04-06T14:25:42.456Z,51.19
2019-04-06T14:28:48.352Z,50.63
2019-04-06T14:32:04.108Z,50.20
2019-04-06T14:35:15.674Z,50.17
2019-04-06T14:38:10.184Z,49.98
2019-04-06T14:41:01.197Z,49.86
2019-04-06T14:43:44.371Z,50.01
2019-04-06T14:46:49.681Z,49.61
2019-04-06T14:49:49.511Z,48.66
2019-04-06T14:52:41.039Z,48.62
2019-04-06T14:55:27.862Z,48.76
2019-04-06T14:58:19.583Z,48.38
2019-04-06T15:01:01.800Z,49.79
2019-04-06T15:03:52.775Z,49.45
2019-04-06T15:06:43.697Z,47.83
2019-04-06T15:09:34.564Z,48.53
2019-04-06T15:12:25.919Z,47.94
2019-04-06T15:15:16.768Z,47.46
2019-04-06T15:18:06.407Z,48.70
2019-04-06T15:20:50.984Z,47.29
2019-04-06T15:23:37.339Z,46.67
2019-04-06T15:26:19.379Z,47.33
2019-04-06T15:29:18.172Z,47.83
2019-04-06T15:32:21.466Z,47.45
2019-04-06T15:35:05.031Z,47.58
2019-04-06T15:37:58.182Z,47.82
2019-04-06T15:40:41.588Z,47.07
2019-04-06T15:43:38.737Z,48.60
2019-04-06T15:46:17.010Z,49.17
2019-04-06T15:48:56.924Z,48.43
2019-04-06T15:51:46.631Z,48.09
2019-04-06T15:54:24.735Z,48.27
2019-04-06T15:57:03.192Z,48.46
2019-04-06T16:00:03.010Z,48.69
2019-04-06T16:02:57.832Z,48.04
2019-04-06T16:05:50.610Z,50.15
2019-04-06T16:08:41.261Z,49.67
2019-04-06T16:11:34.758Z,50.90
2019-04-06T16:14:16.744Z,50.62
2019-04-06T16:16:57.980Z,49.79
2019-04-06T16:19:39.212Z,49.21
2019-04-06T16:22:24.023Z,49.86
2019-04-06T16:25:07.093Z,50.74
2019-04-06T16:27:53.337Z,51.48
2019-04-06T16:30:47.210Z,51.50
2019-04-06T16:33:40.737Z,52.09
2019-04-06T16:36:30.241Z,52.17
2019-04-06T16:39:27.828Z,51.97
2019-04-06T16:42:17.051Z,52.66
2019-04-06T16:45:13.837Z,53.50
2019-04-06T16:48:03.207Z,53.43
2019-04-06T16:50:40.923Z,54.47
2019-04-06T16:53:44.014Z,54.89
2019-04-06T16:56:34.710Z,55.07
2019-04-06T16:59:28.587Z,55.18
2019-04-06T17:02:24.703Z,55.26
2019-04-06T17:05:20.751Z,55.05
2019-04-06T17:08:12.769Z,54.98
2019-04-06T17:11:05.763Z,56.19
2019-04-06T17:14:01.570Z,56.48
2019-04-06T17:17:04.783Z,56.59
2019-04-06T17:19:59.525Z,57.31
2019-04-06T17:22:37.199Z,57.60
2019-04-06T17:25:23.400Z,57.96
2019-04-06T17:28:01.630Z,56.73
2019-04-06T17:30:38.575Z,57.28
2019-04-06T17:33:17.317Z,57.37
2019-04-06T17:36:00.627Z,57.50
2019-04-06T17:38:42.906Z,57.64
2019-04-06T17:41:46.530Z,57.58
2019-04-06T17:44:37.385Z,57.87
2019-04-06T17:47:28.807Z,58.33
2019-04-06T17:50:12.168Z,58.45
2019-04-06T17:52:55.577Z,59.02
2019-04-06T17:55:37.838Z,59.33
2019-04-06T17:58:35.508Z,59.61
2019-04-06T18:01:35.727Z,59.71
2019-04-06T18:04:25.293Z,59.70
2019-04-06T18:07:15.099Z,59.89
2019-04-06T18:10:04.620Z,59.95
2019-04-06T18:12:45.436Z,60.23
2019-04-06T18:15:17.796Z,60.31
2019-04-06T18:17:49.775Z,60.44
2019-04-06T18:20:22.031Z,60.37
2019-04-06T18:22:54.139Z,60.64
2019-04-06T18:25:26.162Z,61.29
2019-04-06T18:27:58.168Z,61.42
2019-04-06T18:30:30.502Z,61.69
2019-04-06T18:33:08.795Z,61.76
2019-04-06T18:35:40.649Z,61.93
2019-04-06T18:38:20.951Z,62.22
2019-04-06T18:40:53.648Z,62.41
2019-04-06T18:43:25.534Z,62.71
2019-04-06T18:45:57.633Z,63.36
2019-04-06T18:48:30.748Z,63.81
2019-04-06T18:51:02.536Z,64.09
2019-04-06T18:53:34.358Z,64.33
2019-04-06T18:56:06.422Z,64.23
2019-04-06T18:58:38.169Z,64.50
2019-04-06T19:01:10.113Z,64.51
2019-04-06T19:03:43.145Z,64.33
2019-04-06T19:06:15.157Z,64.05
2019-04-06T19:08:47.177Z,64.29
2019-04-06T19:11:19.031Z,64.09
2019-04-06T19:13:51.050Z,64.34
2019-04-06T19:16:22.892Z,64.42
2019-04-06T19:18:54.784Z,64.94
2019-04-06T19:21:26.792Z,65.19
2019-04-06T19:23:58.944Z,65.54
2019-04-06T19:26:31.139Z,65.73
2019-04-06T19:29:03.012Z,66.75
2019-04-06T19:31:35.389Z,66.37
2019-04-06T19:34:07.431Z,66.53
2019-04-06T19:36:39.556Z,66.14
2019-04-06T19:39:15.192Z,65.79
2019-04-06T19:41:47.286Z,65.37
2019-04-06T19:44:19.473Z,64.86
2019-04-06T19:46:51.327Z,64.47
2019-04-06T19:49:23.201Z,64.38
2019-04-06T19:51:55.432Z,64.42
2019-04-06T19:54:27.296Z,63.96
2019-04-06T19:56:59.116Z,64.20
2019-04-06T19:59:31.187Z,64.26
2019-04-06T20:02:03.074Z,64.42
2019-04-06T20:04:35.418Z,64.29
2019-04-06T20:07:10.958Z,64.42
2019-04-06T20:09:42.151Z,64.45
2019-04-06T20:12:14.138Z,64.05
2019-04-06T20:14:45.871Z,64.24
2019-04-06T20:17:17.861Z,64.46
2019-04-06T20:19:49.772Z,64.55
2019-04-06T20:22:22.961Z,64.61
2019-04-06T20:24:54.837Z,64.47
2019-04-06T20:27:26.987Z,64.57
2019-04-06T20:29:58.817Z,64.56
2019-04-06T20:32:30.626Z,64.48
2019-04-06T20:35:02.940Z,64.76
2019-04-06T20:37:35.784Z,65.53
2019-04-06T20:40:08.702Z,65.47
2019-04-06T20:42:40.585Z,65.39
2019-04-06T20:45:13.059Z,65.47
2019-04-06T20:47:44.855Z,65.29
2019-04-06T20:50:16.877Z,65.54
2019-04-06T20:52:49.148Z,65.75
2019-04-06T20:55:21.047Z,65.82
2019-04-06T20:57:52.792Z,65.94
2019-04-06T21:00:24.668Z,66.06
2019-04-06T21:02:56.665Z,66.11
2019-04-06T21:05:28.891Z,66.23
2019-04-06T21:08:00.904Z,66.34
2019-04-06T21:10:32.730Z,66.52
2019-04-06T21:13:04.440Z,66.67
2019-04-06T21:15:36.429Z,66.92
2019-04-06T21:18:09.326Z,66.86
2019-04-06T21:20:41.255Z,67.08
2019-04-06T21:23:15.131Z,67.31
2019-04-06T21:25:46.793Z,67.53
2019-04-06T21:28:18.813Z,67.48
2019-04-06T21:30:50.581Z,67.63
2019-04-06T21:33:23.338Z,67.50
2019-04-06T21:35:55.362Z,67.60
2019-04-06T21:38:27.265Z,67.49
2019-04-06T21:40:59.305Z,67.77
2019-04-06T21:43:31.144Z,67.92
2019-04-06T21:46:02.905Z,67.69
2019-04-06T21:48:35.224Z,67.81
2019-04-06T21:51:08.020Z,67.87
2019-04-06T21:53:40.261Z,67.97
2019-04-06T21:56:12.338Z,67.98
2019-04-06T21:58:44.692Z,68.11
2019-04-06T22:01:18.500Z,68.22
2019-04-06T22:03:52.322Z,68.43
2019-04-06T22:06:25.705Z,68.68
2019-04-06T22:08:57.755Z,68.79
2019-04-06T22:11:29.640Z,69.17
2019-04-06T22:14:01.887Z,69.11
2019-04-06T22:16:33.820Z,69.44
2019-04-06T22:19:05.807Z,69.76
2019-04-06T22:21:37.610Z,70.05
2019-04-06T22:24:09.599Z,69.99
2019-04-06T22:26:41.375Z,70.16
2019-04-06T22:29:13.120Z,70.23
2019-04-06T22:31:44.963Z,70.38
2019-04-06T22:34:17.249Z,70.36
2019-04-06T22:36:49.040Z,70.46
2019-04-06T22:39:21.511Z,70.40
2019-04-06T22:41:53.695Z,69.90
2019-04-06T22:44:26.586Z,70.02
2019-04-06T22:46:58.901Z,70.12
2019-04-06T22:49:30.677Z,70.24
2019-04-06T22:52:02.419Z,70.57
2019-04-06T22:54:34.504Z,70.96
2019-04-06T22:57:06.401Z,71.24
2019-04-06T22:59:38.213Z,71.50
2019-04-06T23:02:11.962Z,71.52
2019-04-06T23:04:51.494Z,71.61
2019-04-06T23:07:25.103Z,71.72
2019-04-06T23:09:57.688Z,71.41
2019-04-06T23:12:29.469Z,71.32
2019-04-06T23:15:01.630Z,71.68
2019-04-06T23:17:34.000Z,71.85
2019-04-06T23:20:06.606Z,72.14
2019-04-06T23:22:38.318Z,72.37
2019-04-06T23:25:10.632Z,72.17
2019-04-06T23:27:42.398Z,72.00
2019-04-06T23:30:14.354Z,72.52
2019-04-06T23:32:46.596Z,72.90
2019-04-06T23:35:18.594Z,72.80
2019-04-06T23:37:50.299Z,72.40
2019-04-06T23:40:22.454Z,72.53
2019-04-06T23:42:54.126Z,73.05
2019-04-06T23:45:26.261Z,73.36
2019-04-06T23:47:58.125Z,73.65
2019-04-06T23:50:30.118Z,73.76
2019-04-06T23:53:01.913Z,73.77
2019-04-06T23:55:33.728Z,73.63
2019-04-06T23:58:05.654Z,73.56
